Island Park, Idaho
Current Conditions -  °F | °C
As of 2:15 PM on Tuesday 21 Oct 2014 (Local Time) from KWYS Reporting Station
Overcast Overcast  
Wind Chill: 28°   Ceiling: 1700
Heat Index: 37°   Visibility: 10mi
Dew Point: 32°   Wind: 17mph
Humidity: 81%   Direction: 200°SSW
Pressure: 29.99"   Gusts: 30mph
Location:  44.42°N, 111.37°W
Report Text: KWYS 212015Z AUTO 20015G26KT 10SM BKN017 BKN024 OVC080 03/00 A2999 RMK AO2
Loading
Personal Weather Stations






























Interactive Weather Map
Tropical Storm Tracking
New forecast layout! Learn more

10-Day Weather Forecast

Advertisements
Track Severe Weather on mobile